PABI/DJN METAR and TAF weather

Enter ICAO airport designator
Station Type Date Time Source
PABI METAR 2023/02/04 01:53 UTC NOAA

PABI 040153Z 36004KT 10SM FEW060 BKN090 OVC200 M15/M18 A2954 RMK AO2 SLP056 T11501178


Station Type Date Time Source
PABI Decoded METAR 2023/02/04 01:53 UTC NOAA

ALLEN ARMY AIRFIELD, AK, United States (PABI) 64-00N 145-43W 391M
Feb 03, 2023 - 08:53 PM EST / 2023.02.04 0153 UTC
Wind: from the N (360 degrees) at 5 MPH (4 KT):0
Visibility: 10 mile(s):0
Sky conditions: overcast
Temperature: 5.0 F (-15.0 C)
Windchill: -4 F (-20 C):1
Dew Point: -0.0 F (-17.8 C)
Relative Humidity: 79%
Pressure (altimeter): 29.54 in. Hg (1000 hPa)
ob: PABI 040153Z 36004KT 10SM FEW060 BKN090 OVC200 M15/M18 A2954 RMK AO2 SLP056 T11501178
cycle: 2

Station Type Date Time Source
PABI TAF 2023/02/03 22:05 UTC NOAA

TAF PABI 032200Z 0322/0504 VRB06KT 9999 FEW040 SCT055 BKN120 QNH2948INS
BECMG 0408/0409 VRB06KT 9999 BKN030 620307 QNH2936INS TXM17/0323Z TNM28/0410Z

Example: see airport list